Time;durP1;ratioP1;P1;durP2;ratioP2;P2;SDS_P1;SDS_P2;PMS_P1;PMS_P2;Temp;Humidity;BMP_temperature;BMP_pressure;BME280_temperature;BME280_humidity;BME280_pressure;Samples;Min_cycle;Max_cycle;Signal;HPM_P1;HPM_P2
2022/06/17 00:00:55;;;;;;;0.97;0.70;;;23.00;65.50;;;;;;5074108;28;20459;-65
2022/06/17 00:03:34;;;;;;;1.23;1.10;;;23.10;69.50;;;;;;5080131;28;20472;-65
2022/06/17 00:06:06;;;;;;;1.23;1.00;;;23.50;68.80;;;;;;5081247;28;20459;-64
2022/06/17 00:08:49;;;;;;;1.23;1.00;;;23.80;68.00;;;;;;5079341;28;20470;-64
2022/06/17 00:11:25;;;;;;;1.30;1.20;;;23.90;67.30;;;;;;5079605;28;20502;-64
2022/06/17 00:13:56;;;;;;;1.10;1.00;;;24.10;65.80;;;;;;5081934;28;20441;-65
2022/06/17 00:16:33;;;;;;;1.23;1.13;;;24.00;67.30;;;;;;5062183;28;20578;-65
2022/06/17 00:19:04;;;;;;;1.57;1.10;;;24.00;66.20;;;;;;5080140;28;20483;-65
2022/06/17 00:21:37;;;;;;;1.07;0.90;;;23.70;65.00;;;;;;5080378;28;21085;-65
2022/06/17 00:24:17;;;;;;;0.80;0.80;;;23.40;65.20;;;;;;5092268;28;20484;-64
2022/06/17 00:26:48;;;;;;;1.43;1.33;;;23.00;68.10;;;;;;5083208;28;20883;-66
2022/06/17 00:29:20;;;;;;;1.33;1.23;;;23.00;70.70;;;;;;5074830;28;20462;-66
2022/06/17 00:31:52;;;;;;;1.60;1.13;;;23.00;66.80;;;;;;5075119;28;20456;-66
2022/06/17 00:34:23;;;;;;;1.20;0.90;;;22.90;65.80;;;;;;5075669;28;20915;-65
2022/06/17 00:36:59;;;;;;;1.10;1.00;;;23.00;68.30;;;;;;5074063;28;20483;-64
2022/06/17 00:39:34;;;;;;;1.07;1.00;;;23.00;70.80;;;;;;5073819;28;20949;-64
2022/06/17 00:42:10;;;;;;;2.10;1.57;;;22.80;68.70;;;;;;5072695;28;20454;-64
2022/06/17 00:44:45;;;;;;;1.20;1.10;;;22.80;70.30;;;;;;5074848;28;20457;-65
2022/06/17 00:47:26;;;;;;;1.10;1.00;;;22.90;71.40;;;;;;5073625;28;20451;-65
2022/06/17 00:50:00;;;;;;;1.80;1.20;;;23.00;68.20;;;;;;5073174;28;20528;-66
2022/06/17 00:52:37;;;;;;;1.73;1.63;;;22.90;69.20;;;;;;5076550;28;20466;-66
2022/06/17 00:55:18;;;;;;;1.60;1.17;;;22.70;65.10;;;;;;5075404;28;20459;-67
2022/06/17 00:57:49;;;;;;;1.47;1.33;;;22.70;70.70;;;;;;5077206;28;20590;-66
2022/06/17 01:00:21;;;;;;;1.87;1.30;;;22.80;71.00;;;;;;5076725;28;20791;-66
2022/06/17 01:02:55;;;;;;;1.30;1.20;;;22.80;68.50;;;;;;5080497;28;20466;-66
2022/06/17 01:05:38;;;;;;;2.27;2.07;;;22.70;68.10;;;;;;5082601;28;20455;-66
2022/06/17 01:08:15;;;;;;;1.40;1.30;;;22.50;70.00;;;;;;5085221;28;20470;-66
2022/06/17 01:10:48;;;;;;;0.87;0.87;;;22.40;72.10;;;;;;5080693;28;20976;-68
2022/06/17 01:13:19;;;;;;;1.53;1.43;;;22.50;71.60;;;;;;5075227;28;20466;-66
2022/06/17 01:15:51;;;;;;;1.67;1.43;;;22.50;72.20;;;;;;5079300;28;20459;-67
2022/06/17 01:18:22;;;;;;;1.67;1.30;;;22.60;71.50;;;;;;5076210;28;20491;-65
2022/06/17 01:20:55;;;;;;;2.10;1.90;;;22.60;72.60;;;;;;5076659;28;20558;-67
2022/06/17 01:23:28;;;;;;;2.27;2.07;;;22.60;70.90;;;;;;5076701;28;20455;-67
2022/06/17 01:25:59;;;;;;;1.43;0.80;;;22.50;75.20;;;;;;5075410;28;20516;-67
2022/06/17 01:28:30;;;;;;;1.07;0.90;;;22.40;80.70;;;;;;5078201;28;20467;-67
2022/06/17 01:31:04;;;;;;;1.23;1.13;;;22.20;82.90;;;;;;5077112;28;20483;-67
2022/06/17 01:33:38;;;;;;;1.20;1.10;;;22.20;84.70;;;;;;5077185;28;20474;-67
2022/06/17 01:36:13;;;;;;;2.00;0.87;;;22.00;86.40;;;;;;5075400;28;20495;-68
2022/06/17 01:38:48;;;;;;;1.57;1.20;;;21.90;87.60;;;;;;5076953;28;20482;-66
2022/06/17 01:41:22;;;;;;;1.20;1.10;;;21.60;90.10;;;;;;5075408;28;20470;-66
2022/06/17 01:43:56;;;;;;;1.33;1.20;;;21.50;90.90;;;;;;5076575;28;20459;-67
2022/06/17 01:46:33;;;;;;;2.50;1.93;;;21.40;92.10;;;;;;5076382;28;20969;-67
2022/06/17 01:49:08;;;;;;;3.33;1.40;;;21.40;92.00;;;;;;5077688;28;20482;-67
2022/06/17 01:51:43;;;;;;;4.17;1.50;;;21.30;92.00;;;;;;5082500;28;20466;-67
2022/06/17 01:54:19;;;;;;;1.00;0.90;;;21.20;93.10;;;;;;5083637;28;20459;-66
2022/06/17 01:56:53;;;;;;;1.00;0.70;;;21.10;92.60;;;;;;5081596;28;20986;-69
2022/06/17 01:59:29;;;;;;;0.70;0.67;;;21.00;92.80;;;;;;5083566;28;20483;-69
2022/06/17 02:02:02;;;;;;;1.00;0.70;;;20.80;93.30;;;;;;5080897;28;20469;-68
2022/06/17 02:04:36;;;;;;;0.67;0.67;;;20.60;94.10;;;;;;5083605;28;20451;-68
2022/06/17 02:07:15;;;;;;;1.03;0.53;;;20.60;94.80;;;;;;5075592;28;21063;-68
2022/06/17 02:09:49;;;;;;;1.07;0.50;;;20.60;94.90;;;;;;5075611;28;20479;-68
2022/06/17 02:12:22;;;;;;;1.00;0.43;;;20.60;94.40;;;;;;5076536;28;20555;-68
2022/06/17 02:14:54;;;;;;;0.90;0.80;;;20.50;95.00;;;;;;5074961;28;20459;-67
2022/06/17 02:17:29;;;;;;;0.70;0.67;;;20.50;94.00;;;;;;5075568;28;20433;-67
2022/06/17 02:20:00;;;;;;;1.20;0.70;;;20.30;94.80;;;;;;5075962;28;20508;-67
2022/06/17 02:22:33;;;;;;;1.10;0.73;;;20.10;95.70;;;;;;5073719;28;20438;-67
2022/06/17 02:25:11;;;;;;;0.87;0.83;;;20.10;95.60;;;;;;5075113;28;20455;-67
2022/06/17 02:27:45;;;;;;;1.00;0.70;;;20.00;95.20;;;;;;5075429;28;20452;-68
2022/06/17 02:30:16;;;;;;;0.80;0.70;;;19.90;95.70;;;;;;5074817;28;20430;-67
2022/06/17 02:32:49;;;;;;;1.00;0.80;;;19.80;96.20;;;;;;5076229;28;20530;-67
2022/06/17 02:35:29;;;;;;;0.73;0.60;;;19.70;97.20;;;;;;5074778;28;20523;-66
2022/06/17 02:38:03;;;;;;;4.90;0.70;;;19.60;96.80;;;;;;5075696;28;20484;-66
2022/06/17 02:40:41;;;;;;;1.00;0.70;;;19.50;97.50;;;;;;5074075;28;20464;-66
2022/06/17 02:43:15;;;;;;;0.63;0.63;;;19.40;97.30;;;;;;5079575;28;20459;-66
2022/06/17 02:45:56;;;;;;;0.93;0.70;;;19.40;97.10;;;;;;5081806;28;20459;-66
2022/06/17 02:48:29;;;;;;;0.93;0.50;;;19.40;97.50;;;;;;5083091;28;20456;-66
2022/06/17 02:51:03;;;;;;;0.70;0.70;;;19.30;98.30;;;;;;5082070;28;20448;-66
2022/06/17 02:53:36;;;;;;;1.13;0.90;;;19.30;97.80;;;;;;5081412;28;20442;-67
2022/06/17 02:56:13;;;;;;;0.60;0.50;;;19.30;98.60;;;;;;5081500;28;20426;-66
2022/06/17 02:58:53;;;;;;;0.50;0.50;;;19.20;98.30;;;;;;5081770;28;20495;-67
2022/06/17 03:01:26;;;;;;;0.80;0.80;;;19.00;97.90;;;;;;5075818;28;20414;-68
2022/06/17 03:03:57;;;;;;;1.20;0.63;;;18.80;98.80;;;;;;5075584;28;20457;-66
2022/06/17 03:06:34;;;;;;;0.70;0.70;;;18.80;99.30;;;;;;5075836;28;20469;-66
2022/06/17 03:09:19;;;;;;;1.37;0.80;;;18.70;99.20;;;;;;5075612;28;20528;-66
2022/06/17 03:11:54;;;;;;;0.77;0.60;;;18.60;98.90;;;;;;5075546;28;20422;-66
2022/06/17 03:14:27;;;;;;;3.40;0.60;;;18.50;99.30;;;;;;5073650;28;20449;-66
2022/06/17 03:17:03;;;;;;;1.30;0.97;;;18.50;99.50;;;;;;5074656;28;20434;-66
2022/06/17 03:19:38;;;;;;;0.90;0.70;;;18.40;99.60;;;;;;5075496;28;20466;-66
2022/06/17 03:22:13;;;;;;;1.03;0.93;;;18.30;99.30;;;;;;5075180;28;20462;-66
2022/06/17 03:24:53;;;;;;;1.37;0.90;;;18.30;99.90;;;;;;5075210;28;20494;-66
2022/06/17 03:27:33;;;;;;;0.80;0.70;;;18.20;99.90;;;;;;5074312;28;20436;-66
2022/06/17 03:30:05;;;;;;;1.33;0.80;;;18.00;99.90;;;;;;5074816;28;20501;-66
2022/06/17 03:32:39;;;;;;;0.90;0.80;;;18.00;99.90;;;;;;5075863;28;20467;-66
2022/06/17 03:35:18;;;;;;;1.97;0.90;;;18.00;99.90;;;;;;5072251;28;20437;-66
2022/06/17 03:37:57;;;;;;;1.10;0.97;;;17.90;99.90;;;;;;5081262;28;20975;-66
2022/06/17 03:40:33;;;;;;;0.80;0.80;;;17.90;99.90;;;;;;5081442;28;20484;-66
2022/06/17 03:43:10;;;;;;;0.87;0.80;;;17.90;99.90;;;;;;5077856;28;20441;-67
2022/06/17 03:45:46;;;;;;;1.27;1.07;;;17.90;99.90;;;;;;5080448;28;20474;-65
2022/06/17 03:48:27;;;;;;;1.17;0.70;;;17.80;99.90;;;;;;5079598;28;20499;-65
2022/06/17 03:50:58;;;;;;;0.80;0.80;;;17.70;99.90;;;;;;5077691;28;20453;-65
2022/06/17 03:53:30;;;;;;;0.90;0.90;;;17.60;99.90;;;;;;5072672;28;20534;-65
2022/06/17 03:56:05;;;;;;;0.87;0.87;;;17.50;99.90;;;;;;5078806;28;20487;-65
2022/06/17 03:58:40;;;;;;;1.33;1.23;;;17.50;99.90;;;;;;5077038;28;20493;-65
2022/06/17 04:01:16;;;;;;;1.70;1.17;;;17.40;99.60;;;;;;5079850;28;20562;-65
2022/06/17 04:03:51;;;;;;;0.87;0.87;;;17.30;99.80;;;;;;5070853;28;20438;-65
2022/06/17 04:06:25;;;;;;;1.23;0.90;;;17.30;99.70;;;;;;5073633;28;20516;-65
2022/06/17 04:08:58;;;;;;;1.77;1.00;;;17.20;99.70;;;;;;5074565;28;20430;-64
2022/06/17 04:11:31;;;;;;;1.03;0.90;;;17.30;99.80;;;;;;5072494;28;20554;-65
2022/06/17 04:14:07;;;;;;;1.60;1.07;;;17.20;99.90;;;;;;5074730;28;20478;-64
2022/06/17 04:16:45;;;;;;;1.60;0.90;;;17.20;99.90;;;;;;5074232;28;20473;-64
2022/06/17 04:19:19;;;;;;;1.57;1.03;;;17.20;99.90;;;;;;5074126;28;20477;-64
2022/06/17 04:21:50;;;;;;;1.73;1.03;;;17.10;99.90;;;;;;5073200;28;20586;-64
2022/06/17 04:24:24;;;;;;;1.40;1.30;;;17.10;99.90;;;;;;5073517;28;20463;-65
2022/06/17 04:26:59;;;;;;;1.23;1.13;;;17.00;99.90;;;;;;5075877;28;20444;-65
2022/06/17 04:29:38;;;;;;;1.33;1.00;;;16.90;99.90;;;;;;5079118;28;20421;-64
2022/06/17 04:32:16;;;;;;;1.30;1.20;;;17.00;99.90;;;;;;5076989;28;20484;-64
2022/06/17 04:34:47;;;;;;;1.67;1.33;;;16.90;99.90;;;;;;5076809;28;20505;-64
2022/06/17 04:37:21;;;;;;;1.03;0.83;;;16.80;99.90;;;;;;5077932;28;21007;-64
2022/06/17 04:39:55;;;;;;;1.50;1.40;;;16.70;99.90;;;;;;5070715;28;20462;-64
2022/06/17 04:42:35;;;;;;;1.10;1.00;;;16.70;99.90;;;;;;5081219;28;20526;-64
2022/06/17 04:45:17;;;;;;;2.07;1.33;;;16.70;99.90;;;;;;5083862;28;20474;-65
2022/06/17 04:47:48;;;;;;;1.73;1.50;;;16.70;99.90;;;;;;5084906;28;20447;-64
2022/06/17 04:50:23;;;;;;;1.50;1.20;;;16.60;99.90;;;;;;5085005;28;20454;-64
2022/06/17 04:52:55;;;;;;;2.00;1.40;;;16.60;99.90;;;;;;5085065;28;20439;-64
2022/06/17 04:55:29;;;;;;;1.17;0.93;;;16.40;99.90;;;;;;5083157;28;20491;-64
2022/06/17 04:58:00;;;;;;;1.70;1.43;;;16.40;99.90;;;;;;5077168;28;20430;-63
2022/06/17 05:00:32;;;;;;;0.77;0.77;;;16.30;99.90;;;;;;5077457;28;20601;-64
2022/06/17 05:03:03;;;;;;;1.50;1.37;;;16.30;99.90;;;;;;5078977;28;20438;-63
2022/06/17 05:05:37;;;;;;;1.30;1.10;;;16.20;99.90;;;;;;5077284;28;20462;-64
2022/06/17 05:08:14;;;;;;;1.93;1.00;;;16.20;99.90;;;;;;5076292;28;20473;-63
2022/06/17 05:10:50;;;;;;;1.90;1.80;;;16.20;99.90;;;;;;5077070;28;20578;-64
2022/06/17 05:13:25;;;;;;;2.00;1.07;;;16.20;99.90;;;;;;5077468;28;20459;-63
2022/06/17 05:15:58;;;;;;;1.57;1.30;;;16.20;99.90;;;;;;5077596;28;20460;-63
2022/06/17 05:18:32;;;;;;;1.87;1.77;;;16.10;99.90;;;;;;5077613;28;20458;-64
2022/06/17 05:21:03;;;;;;;1.40;1.03;;;16.00;99.90;;;;;;5077379;28;20494;-63
2022/06/17 05:23:35;;;;;;;2.13;1.40;;;16.00;99.90;;;;;;5077944;28;20466;-63
2022/06/17 05:26:10;;;;;;;1.97;1.50;;;15.90;99.90;;;;;;5074967;28;20524;-63
2022/06/17 05:28:44;;;;;;;2.13;1.50;;;15.80;99.90;;;;;;5075782;28;20799;-63
2022/06/17 05:31:19;;;;;;;1.50;1.37;;;15.80;99.90;;;;;;5075577;28;20477;-63
2022/06/17 05:33:50;;;;;;;1.70;1.40;;;15.80;99.90;;;;;;5083278;28;20505;-64
2022/06/17 05:36:21;;;;;;;1.47;1.37;;;15.70;99.90;;;;;;5082909;28;20527;-63
2022/06/17 05:38:56;;;;;;;1.70;1.20;;;15.70;99.90;;;;;;5081657;28;20448;-63
2022/06/17 05:41:27;;;;;;;1.33;1.23;;;15.60;99.90;;;;;;5076812;28;20470;-64
2022/06/17 05:44:00;;;;;;;1.87;1.77;;;15.60;99.90;;;;;;5084405;28;20792;-64
2022/06/17 05:46:33;;;;;;;2.10;1.37;;;15.50;99.90;;;;;;5075625;28;20497;-64
2022/06/17 05:49:06;;;;;;;2.67;1.20;;;15.40;99.90;;;;;;5083741;28;20422;-64
2022/06/17 05:51:36;;;;;;;1.73;1.63;;;15.40;99.90;;;;;;5083522;28;20415;-63
2022/06/17 05:54:07;;;;;;;1.50;1.23;;;15.40;99.90;;;;;;5084077;28;20538;-63
2022/06/17 05:56:38;;;;;;;2.70;1.30;;;15.40;99.90;;;;;;5081064;28;20479;-63
2022/06/17 05:59:10;;;;;;;1.53;1.10;;;15.40;99.90;;;;;;5082615;28;20559;-63
2022/06/17 06:01:42;;;;;;;1.50;1.30;;;15.30;99.90;;;;;;5082801;28;20467;-64
2022/06/17 06:04:13;;;;;;;2.00;1.73;;;15.30;99.90;;;;;;5083045;28;20471;-64
2022/06/17 06:06:44;;;;;;;1.50;1.30;;;15.20;99.90;;;;;;5082863;28;20554;-64
2022/06/17 06:09:14;;;;;;;2.30;1.60;;;15.10;99.90;;;;;;5083364;28;20425;-64
2022/06/17 06:11:45;;;;;;;1.60;1.20;;;15.20;99.90;;;;;;5081856;28;20442;-64
2022/06/17 06:14:16;;;;;;;1.83;1.60;;;15.10;99.90;;;;;;5082177;28;20470;-64
2022/06/17 06:16:50;;;;;;;1.43;1.30;;;15.10;99.90;;;;;;5082935;28;20455;-64
2022/06/17 06:19:21;;;;;;;2.07;1.40;;;15.00;99.90;;;;;;5076711;28;20486;-64
2022/06/17 06:21:52;;;;;;;2.50;1.17;;;15.00;99.90;;;;;;5083309;28;20446;-64
2022/06/17 06:24:23;;;;;;;1.90;1.30;;;14.90;99.90;;;;;;5083398;28;20816;-63
2022/06/17 06:26:53;;;;;;;1.53;1.43;;;14.90;99.90;;;;;;5081322;28;20465;-64
2022/06/17 06:29:25;;;;;;;2.47;1.43;;;14.90;99.90;;;;;;5082035;28;20489;-63
2022/06/17 06:31:57;;;;;;;1.90;1.20;;;14.80;99.90;;;;;;5082060;28;20496;-64
2022/06/17 06:34:28;;;;;;;1.53;1.17;;;14.90;99.90;;;;;;5083708;28;20512;-64
2022/06/17 06:36:59;;;;;;;1.90;1.00;;;14.90;99.90;;;;;;5081878;28;20546;-64
2022/06/17 06:39:29;;;;;;;1.90;1.23;;;14.80;99.90;;;;;;5078963;28;20474;-64
2022/06/17 06:42:00;;;;;;;5.03;1.77;;;14.80;99.90;;;;;;5081019;28;20475;-64
2022/06/17 06:44:31;;;;;;;3.23;1.77;;;14.80;99.90;;;;;;5077674;28;20486;-64
2022/06/17 06:47:04;;;;;;;2.17;1.77;;;14.80;99.90;;;;;;5081404;28;20490;-64
2022/06/17 06:49:35;;;;;;;1.93;1.53;;;14.80;99.90;;;;;;5081243;28;20523;-64
2022/06/17 06:52:06;;;;;;;1.60;1.50;;;14.70;99.90;;;;;;5080897;28;20469;-63
2022/06/17 06:54:37;;;;;;;1.53;1.40;;;14.70;99.90;;;;;;5073303;28;20474;-63
2022/06/17 06:57:08;;;;;;;1.87;1.50;;;14.60;99.90;;;;;;5080488;28;20926;-63
2022/06/17 07:00:02;;;;;;;3.63;1.63;;;14.60;99.90;;;;;;5081887;28;20443;-64
2022/06/17 07:02:35;;;;;;;1.90;1.40;;;14.60;99.90;;;;;;5081488;28;20463;-64
2022/06/17 07:05:06;;;;;;;1.60;1.27;;;14.60;99.90;;;;;;5081486;28;20483;-63
2022/06/17 07:07:41;;;;;;;1.50;1.40;;;14.60;99.90;;;;;;5080620;28;20463;-63
2022/06/17 07:10:15;;;;;;;2.13;1.40;;;14.60;99.90;;;;;;5076645;28;20883;-63
2022/06/17 07:12:46;;;;;;;2.10;1.43;;;14.60;99.90;;;;;;5074459;28;20495;-63
2022/06/17 07:15:18;;;;;;;2.30;1.90;;;14.60;99.90;;;;;;5074801;28;20470;-63
2022/06/17 07:17:56;;;;;;;1.90;1.77;;;14.60;99.90;;;;;;5073203;28;20559;-64
2022/06/17 07:20:28;;;;;;;1.70;1.50;;;14.60;99.90;;;;;;5073755;28;20499;-64
2022/06/17 07:22:59;;;;;;;2.20;1.97;;;14.60;99.90;;;;;;5075775;28;20653;-63
2022/06/17 07:25:30;;;;;;;2.33;1.53;;;14.60;99.90;;;;;;5072596;28;20472;-64
2022/06/17 07:28:07;;;;;;;2.07;1.77;;;14.50;99.90;;;;;;5074651;28;20470;-63
2022/06/17 07:30:38;;;;;;;2.27;1.70;;;14.60;99.90;;;;;;5073884;28;20607;-63
2022/06/17 07:33:11;;;;;;;2.00;1.60;;;14.60;99.90;;;;;;5072841;28;20530;-64
2022/06/17 07:35:42;;;;;;;1.63;1.53;;;14.50;99.90;;;;;;5075094;28;20574;-64
2022/06/17 07:41:11;;;;;;;1.97;1.47;;;14.50;99.90;;;;;;5074239;28;20502;-63
2022/06/17 07:43:42;;;;;;;1.83;1.63;;;14.50;99.90;;;;;;5076121;28;20459;-64
2022/06/17 07:46:19;;;;;;;2.27;1.60;;;14.50;99.90;;;;;;5078757;28;20459;-63
2022/06/17 07:48:52;;;;;;;2.20;1.80;;;14.50;99.90;;;;;;5081112;28;20464;-63
2022/06/17 07:51:23;;;;;;;2.03;1.50;;;14.40;99.90;;;;;;5081086;28;20464;-64
2022/06/17 07:53:54;;;;;;;1.83;1.60;;;14.40;99.90;;;;;;5081618;28;20516;-62
2022/06/17 07:56:26;;;;;;;5.70;1.77;;;14.40;99.90;;;;;;5080955;28;20470;-62
2022/06/17 07:58:58;;;;;;;3.20;2.10;;;14.30;99.90;;;;;;5081612;28;20463;-62
2022/06/17 08:01:29;;;;;;;2.27;1.70;;;14.30;99.90;;;;;;5080554;28;20491;-63
2022/06/17 08:04:01;;;;;;;2.77;1.83;;;14.30;99.90;;;;;;5074707;28;20475;-63
2022/06/17 08:06:32;;;;;;;2.57;1.90;;;14.30;99.90;;;;;;5074185;28;20464;-63
2022/06/17 08:09:03;;;;;;;1.97;1.87;;;14.30;99.90;;;;;;5074579;28;20459;-64
2022/06/17 08:11:34;;;;;;;2.50;1.80;;;14.30;99.90;;;;;;5074325;28;20474;-63
2022/06/17 08:14:05;;;;;;;1.70;1.47;;;14.30;99.90;;;;;;5074197;28;20455;-63
2022/06/17 08:16:36;;;;;;;1.50;1.40;;;14.30;99.90;;;;;;5073724;28;20471;-62
2022/06/17 08:19:09;;;;;;;1.83;1.50;;;14.30;99.90;;;;;;5074639;28;20527;-63
2022/06/17 08:21:40;;;;;;;2.07;1.70;;;14.20;99.90;;;;;;5074356;28;20487;-64
2022/06/17 08:24:27;;;;;;;2.23;1.60;;;14.20;99.90;;;;;;5074151;28;20513;-65
2022/06/17 08:26:58;;;;;;;1.70;1.50;;;14.20;99.90;;;;;;5073352;28;20451;-63
2022/06/17 08:29:29;;;;;;;2.00;1.80;;;14.20;99.90;;;;;;5073538;28;20491;-63
2022/06/17 08:35:09;;;;;;;1.80;1.67;;;14.20;99.90;;;;;;5074206;28;20519;-63
2022/06/17 08:37:40;;;;;;;3.47;1.67;;;14.10;99.90;;;;;;5075878;28;21147;-63
2022/06/17 08:40:26;;;;;;;3.43;1.97;;;14.20;99.90;;;;;;5079717;28;20460;-63
2022/06/17 08:43:07;;;;;;;4.97;1.93;;;14.20;99.90;;;;;;5080587;28;20486;-62
2022/06/17 08:45:47;;;;;;;3.80;1.70;;;14.20;99.90;;;;;;5077830;28;20431;-62
2022/06/17 08:48:28;;;;;;;2.43;1.67;;;14.20;99.90;;;;;;5081593;28;20478;-63
2022/06/17 08:51:12;;;;;;;1.90;1.40;;;14.30;99.90;;;;;;5081077;28;20455;-62
2022/06/17 08:54:09;;;;;;;1.90;1.60;;;14.20;99.90;;;;;;5080415;28;20463;-63
2022/06/17 08:56:50;;;;;;;3.07;2.10;;;14.20;99.90;;;;;;5070720;28;20551;-63
2022/06/17 08:59:36;;;;;;;2.10;1.60;;;14.20;99.90;;;;;;5072940;28;20467;-63
2022/06/17 09:02:19;;;;;;;2.00;1.80;;;14.10;99.90;;;;;;5073655;28;20510;-64
2022/06/17 09:05:05;;;;;;;2.00;1.77;;;14.20;99.90;;;;;;5073821;28;22236;-63
2022/06/17 09:07:46;;;;;;;2.93;1.60;;;14.20;99.90;;;;;;5074394;28;20467;-62
2022/06/17 09:10:35;;;;;;;3.20;2.03;;;14.10;99.90;;;;;;5072769;28;20478;-62
2022/06/17 09:13:23;;;;;;;2.73;1.67;;;14.10;99.90;;;;;;5074428;28;20566;-63
2022/06/17 09:16:02;;;;;;;2.87;1.70;;;14.10;99.90;;;;;;5078507;28;20451;-62
2022/06/17 09:18:36;;;;;;;5.27;1.70;;;14.10;99.90;;;;;;5077349;28;20459;-62
2022/06/17 09:21:12;;;;;;;3.53;2.13;;;14.10;99.90;;;;;;5076486;28;20486;-63
2022/06/17 09:23:45;;;;;;;2.77;2.00;;;14.10;99.90;;;;;;5076158;28;20470;-63
2022/06/17 09:26:22;;;;;;;2.03;1.83;;;14.10;99.90;;;;;;5074677;28;20463;-62
2022/06/17 09:28:58;;;;;;;2.00;1.80;;;14.10;99.90;;;;;;5076973;28;20978;-63
2022/06/17 09:31:34;;;;;;;1.83;1.70;;;14.10;99.90;;;;;;5080917;28;20850;-63
2022/06/17 09:34:11;;;;;;;3.80;2.37;;;14.10;99.90;;;;;;5083900;28;20455;-63
2022/06/17 09:36:49;;;;;;;2.00;1.70;;;14.10;99.90;;;;;;5083872;28;20469;-63
2022/06/17 09:39:29;;;;;;;1.70;1.60;;;14.00;99.90;;;;;;5078092;28;20439;-63
2022/06/17 09:42:05;;;;;;;2.23;1.90;;;14.00;99.90;;;;;;5075457;28;20506;-65
2022/06/17 09:44:41;;;;;;;2.97;1.90;;;14.00;99.90;;;;;;5076919;28;20470;-63
2022/06/17 09:47:19;;;;;;;2.10;1.90;;;14.00;99.90;;;;;;5076278;28;20470;-63
2022/06/17 09:49:55;;;;;;;2.37;1.70;;;14.00;99.90;;;;;;5075907;28;20490;-63
2022/06/17 09:52:30;;;;;;;5.10;2.23;;;14.00;99.90;;;;;;5076438;28;20455;-63
2022/06/17 09:55:09;;;;;;;5.70;2.30;;;14.00;99.90;;;;;;5075445;28;20451;-63
2022/06/17 09:57:45;;;;;;;3.03;2.00;;;13.90;99.90;;;;;;5076675;28;20482;-63
2022/06/17 10:00:19;;;;;;;2.00;1.80;;;14.00;99.90;;;;;;5076318;28;20474;-63
2022/06/17 10:02:53;;;;;;;1.90;1.70;;;13.90;99.90;;;;;;5076223;28;21007;-63
2022/06/17 10:05:35;;;;;;;2.93;1.97;;;13.90;99.90;;;;;;5076797;28;20453;-63
2022/06/17 10:08:17;;;;;;;2.67;1.87;;;13.80;99.90;;;;;;5075926;28;20935;-64
2022/06/17 10:10:58;;;;;;;2.77;2.20;;;13.80;99.90;;;;;;5075058;28;20455;-64
2022/06/17 10:13:37;;;;;;;3.03;1.87;;;13.70;99.90;;;;;;5079034;28;20557;-63
2022/06/17 10:19:22;;;;;;;3.87;2.17;;;13.80;99.90;;;;;;5071429;28;20494;-63
2022/06/17 10:22:07;;;;;;;1.60;1.43;;;13.70;99.90;;;;;;5082181;28;20479;-63
2022/06/17 10:24:58;;;;;;;4.00;1.80;;;13.70;99.90;;;;;;5081726;28;20455;-62
2022/06/17 10:27:54;;;;;;;2.23;2.03;;;13.70;99.90;;;;;;5082003;28;20468;-63
2022/06/17 10:30:37;;;;;;;2.60;1.87;;;13.70;99.90;;;;;;5081163;28;20467;-63
2022/06/17 10:33:12;;;;;;;1.87;1.67;;;13.60;99.90;;;;;;5083000;28;20889;-63
2022/06/17 10:35:45;;;;;;;3.87;2.20;;;13.60;99.90;;;;;;5081896;28;20459;-62
2022/06/17 10:38:21;;;;;;;2.10;1.77;;;13.60;99.90;;;;;;5082471;28;20565;-63
2022/06/17 10:40:52;;;;;;;2.40;1.80;;;13.60;99.90;;;;;;5080463;28;20786;-62
2022/06/17 10:43:32;;;;;;;3.33;1.90;;;13.60;99.90;;;;;;5078410;28;21266;-62
2022/06/17 10:46:04;;;;;;;3.13;2.40;;;13.60;99.90;;;;;;5075384;28;20463;-62
2022/06/17 10:48:39;;;;;;;3.60;1.90;;;13.60;99.90;;;;;;5076593;28;20452;-62
2022/06/17 10:51:11;;;;;;;2.60;2.37;;;13.60;99.90;;;;;;5074685;28;20454;-63
2022/06/17 10:53:47;;;;;;;3.93;1.90;;;13.60;99.90;;;;;;5076071;28;20466;-62
2022/06/17 10:56:23;;;;;;;2.97;2.17;;;13.50;99.90;;;;;;5074965;28;20455;-63
2022/06/17 10:59:06;;;;;;;3.10;2.30;;;13.50;99.90;;;;;;5075836;28;20471;-62
2022/06/17 11:02:01;;;;;;;2.13;1.73;;;13.40;99.90;;;;;;5076086;28;20577;-63
2022/06/17 11:04:34;;;;;;;1.60;1.40;;;13.40;99.90;;;;;;5057228;28;20453;-62
2022/06/17 11:07:15;;;;;;;5.90;2.33;;;13.30;99.90;;;;;;5074939;28;20486;-63
2022/06/17 11:09:53;;;;;;;3.20;2.00;;;13.40;99.90;;;;;;5075739;28;20494;-62
2022/06/17 11:12:37;;;;;;;2.27;1.90;;;13.30;99.90;;;;;;5075312;28;20455;-62
2022/06/17 11:15:31;;;;;;;3.53;1.80;;;13.40;99.90;;;;;;5073856;28;20464;-62
2022/06/17 11:18:07;;;;;;;3.73;2.03;;;13.30;99.90;;;;;;5076668;28;20463;-63
2022/06/17 11:20:42;;;;;;;1.97;1.53;;;13.30;99.90;;;;;;5081229;28;20506;-62
2022/06/17 11:23:25;;;;;;;2.50;1.67;;;13.20;99.90;;;;;;5081309;28;20490;-62
2022/06/17 11:26:13;;;;;;;2.37;1.50;;;13.20;99.90;;;;;;5076654;28;20487;-63
2022/06/17 11:28:46;;;;;;;2.70;2.00;;;13.30;99.90;;;;;;5073282;28;20459;-62
2022/06/17 11:31:34;;;;;;;1.80;1.70;;;13.20;99.90;;;;;;5073823;28;20459;-62
2022/06/17 11:34:14;;;;;;;2.03;1.57;;;13.30;99.90;;;;;;5075077;28;20511;-62
2022/06/17 11:37:04;;;;;;;2.27;1.67;;;13.10;99.90;;;;;;5074553;28;20474;-62
2022/06/17 11:39:37;;;;;;;1.83;1.63;;;13.20;99.90;;;;;;5075753;28;20459;-63
2022/06/17 11:42:18;;;;;;;2.40;1.90;;;13.20;99.90;;;;;;5073989;28;20469;-62
2022/06/17 11:44:55;;;;;;;2.63;1.77;;;13.20;99.90;;;;;;5076399;28;20459;-62
2022/06/17 11:47:29;;;;;;;2.40;1.90;;;13.20;99.90;;;;;;5074498;28;20463;-62
2022/06/17 11:50:12;;;;;;;1.20;1.10;;;13.20;99.90;;;;;;5073970;28;20533;-62
2022/06/17 11:52:43;;;;;;;2.30;1.93;;;13.20;99.90;;;;;;5074917;28;20482;-62
2022/06/17 11:55:15;;;;;;;1.70;1.60;;;13.10;99.90;;;;;;5073773;28;20891;-62
2022/06/17 11:58:06;;;;;;;3.80;1.73;;;13.20;99.90;;;;;;5074644;28;20485;-62
2022/06/17 12:00:48;;;;;;;1.87;1.60;;;13.10;99.90;;;;;;5074029;28;20489;-63
2022/06/17 12:03:44;;;;;;;5.33;2.63;;;13.10;99.90;;;;;;5067951;28;20494;-62
2022/06/17 12:06:26;;;;;;;3.43;1.80;;;13.10;99.90;;;;;;5080307;28;20483;-62
2022/06/17 12:09:05;;;;;;;3.20;2.30;;;12.90;99.90;;;;;;5081507;28;20467;-62
2022/06/17 12:11:44;;;;;;;1.70;1.60;;;12.90;99.90;;;;;;5079658;28;20470;-63
2022/06/17 12:14:23;;;;;;;5.27;2.10;;;12.90;99.90;;;;;;5081512;28;20590;-62
2022/06/17 12:16:56;;;;;;;3.63;2.30;;;12.90;99.90;;;;;;5079996;28;21010;-62
2022/06/17 12:19:48;;;;;;;3.67;2.63;;;12.90;99.90;;;;;;5075227;28;20471;-62
2022/06/17 12:22:23;;;;;;;1.90;1.80;;;12.80;99.90;;;;;;5073641;28;20463;-62
2022/06/17 12:25:00;;;;;;;2.97;2.10;;;12.90;99.90;;;;;;5074431;28;20920;-63
2022/06/17 12:27:34;;;;;;;2.70;1.97;;;12.80;99.90;;;;;;5074476;28;20562;-62
2022/06/17 12:30:37;;;;;;;3.97;1.77;;;12.70;99.90;;;;;;5073815;28;20529;-62
2022/06/17 12:33:15;;;;;;;2.20;1.73;;;12.80;99.90;;;;;;5074142;28;20475;-62
2022/06/17 12:35:49;;;;;;;2.57;1.83;;;12.80;99.90;;;;;;5073512;28;20633;-62
2022/06/17 12:38:30;;;;;;;4.40;2.20;;;12.70;99.90;;;;;;5074471;28;20459;-62
2022/06/17 12:41:10;;;;;;;2.23;2.03;;;12.70;99.90;;;;;;5072329;28;20489;-62
2022/06/17 12:43:45;;;;;;;3.87;2.70;;;12.70;99.90;;;;;;5073701;28;20498;-63
2022/06/17 12:46:26;;;;;;;2.50;2.07;;;12.70;99.90;;;;;;5074696;28;20455;-63
2022/06/17 12:54:58;;;;;;;2.37;1.97;;;12.80;99.90;;;;;;5082779;28;20447;-63
2022/06/17 12:57:36;;;;;;;2.10;1.63;;;12.70;99.90;;;;;;5083331;28;20467;-63
2022/06/17 13:00:10;;;;;;;2.23;2.00;;;12.80;99.90;;;;;;5083742;28;20466;-63
2022/06/17 13:02:57;;;;;;;5.70;2.73;;;12.70;99.90;;;;;;5077078;28;20463;-63
2022/06/17 13:05:35;;;;;;;2.57;2.23;;;12.80;99.90;;;;;;5077412;28;20478;-63
2022/06/17 13:08:21;;;;;;;3.77;2.13;;;12.80;99.90;;;;;;5078263;28;21132;-63
2022/06/17 13:10:59;;;;;;;2.83;2.53;;;12.70;99.90;;;;;;5076369;28;20447;-64
2022/06/17 13:13:47;;;;;;;2.70;2.10;;;12.80;99.90;;;;;;5077274;28;20466;-64
2022/06/17 13:16:28;;;;;;;2.57;1.90;;;12.80;99.90;;;;;;5077544;28;20516;-63
2022/06/17 13:19:07;;;;;;;2.90;2.03;;;12.80;99.90;;;;;;5077726;28;20467;-64
2022/06/17 13:21:44;;;;;;;2.90;2.07;;;12.90;99.90;;;;;;5077130;28;20469;-63
2022/06/17 13:24:24;;;;;;;2.90;2.23;;;13.00;99.90;;;;;;5077205;28;20494;-63
2022/06/17 13:27:01;;;;;;;4.50;2.10;;;13.00;99.90;;;;;;5076520;28;20467;-63
2022/06/17 13:29:42;;;;;;;2.53;2.03;;;13.10;99.90;;;;;;5076822;28;20463;-63
2022/06/17 13:32:17;;;;;;;2.87;2.47;;;13.10;99.90;;;;;;5076609;28;20435;-63
2022/06/17 13:34:52;;;;;;;4.80;2.50;;;13.20;99.90;;;;;;5077817;28;20459;-63
2022/06/17 13:37:28;;;;;;;2.50;2.13;;;13.20;99.90;;;;;;5080632;28;20463;-63
2022/06/17 13:40:05;;;;;;;2.07;1.87;;;13.30;99.90;;;;;;5081891;28;20471;-63
2022/06/17 13:42:39;;;;;;;3.23;2.23;;;13.40;99.90;;;;;;5081884;28;20756;-63
2022/06/17 13:45:23;;;;;;;2.30;2.00;;;13.40;99.90;;;;;;5078669;28;20495;-63
2022/06/17 13:48:01;;;;;;;2.80;1.57;;;13.50;99.90;;;;;;5076981;28;20441;-63